Time;durP1;ratioP1;P1;durP2;ratioP2;P2;SDS_P1;SDS_P2;PMS_P1;PMS_P2;Temp;Humidity;BMP_temperature;BMP_pressure;BME280_temperature;BME280_humidity;BME280_pressure;Samples;Min_cycle;Max_cycle;Signal;HPM_P1;HPM_P2
2022/11/05 00:10:27;;;;;;;10.13;4.07;;;5.60;99.90;;;;;;5057166;28;20114;-67
2022/11/05 00:18:22;;;;;;;13.90;4.30;;;5.80;99.90;;;;;;5059331;28;20048;-67
2022/11/05 00:20:48;;;;;;;12.82;4.10;;;5.90;99.90;;;;;;5063068;28;20045;-67
2022/11/05 00:26:04;;;;;;;11.73;4.47;;;6.00;99.90;;;;;;5046517;28;20051;-67
2022/11/05 00:28:30;;;;;;;11.20;3.60;;;6.00;99.90;;;;;;5039642;28;20307;-67
2022/11/05 00:31:10;;;;;;;9.52;3.85;;;6.00;99.90;;;;;;5061650;28;20044;-66
2022/11/05 00:33:37;;;;;;;12.23;4.22;;;6.00;99.90;;;;;;5038434;28;20048;-67
2022/11/05 00:36:04;;;;;;;9.05;4.43;;;6.00;99.90;;;;;;5065125;28;20032;-67
2022/11/05 00:38:31;;;;;;;6.95;2.85;;;6.00;99.90;;;;;;5054266;28;20033;-67
2022/11/05 00:40:57;;;;;;;8.43;3.20;;;6.00;99.90;;;;;;5059606;28;20239;-67
2022/11/05 00:46:07;;;;;;;9.25;4.05;;;5.90;99.90;;;;;;5044383;28;20459;-67
2022/11/05 00:51:17;;;;;;;14.63;4.40;;;6.00;99.90;;;;;;5063683;28;20043;-67
2022/11/05 00:53:43;;;;;;;10.93;3.38;;;6.20;99.90;;;;;;5062130;28;20115;-67
2022/11/05 00:56:09;;;;;;;10.70;3.15;;;6.10;99.90;;;;;;5060660;28;20242;-67
2022/11/05 00:58:34;;;;;;;9.80;3.35;;;6.10;99.90;;;;;;5066554;28;20064;-67
2022/11/05 01:01:01;;;;;;;17.33;3.85;;;6.10;99.90;;;;;;5065642;28;20037;-67
2022/11/05 01:03:33;;;;;;;18.73;4.30;;;6.10;99.90;;;;;;5059174;28;20048;-67
2022/11/05 01:06:08;;;;;;;8.30;3.22;;;6.10;99.90;;;;;;5064304;28;20044;-67
2022/11/05 01:08:34;;;;;;;9.20;3.17;;;6.10;99.90;;;;;;5062163;28;20033;-66
2022/11/05 01:11:06;;;;;;;14.38;3.42;;;6.00;99.90;;;;;;5066272;28;20498;-67
2022/11/05 01:13:31;;;;;;;10.90;3.38;;;6.00;99.90;;;;;;5062471;28;20071;-67
2022/11/05 01:16:04;;;;;;;5.05;2.42;;;5.90;99.90;;;;;;5065505;28;20036;-66
2022/11/05 01:18:30;;;;;;;7.20;3.05;;;5.90;99.90;;;;;;5064231;28;20068;-67
2022/11/05 01:20:56;;;;;;;7.45;2.67;;;5.80;99.90;;;;;;5065560;28;20075;-67
2022/11/05 01:23:21;;;;;;;11.98;2.90;;;5.70;99.90;;;;;;5063425;28;20040;-66
2022/11/05 01:25:47;;;;;;;6.05;2.83;;;5.70;99.90;;;;;;5057678;28;20552;-66
2022/11/05 01:28:13;;;;;;;7.03;2.72;;;5.70;99.90;;;;;;5064405;28;20418;-66
2022/11/05 01:30:38;;;;;;;12.23;2.17;;;5.60;99.90;;;;;;5044808;28;20036;-67
2022/11/05 01:33:04;;;;;;;6.20;2.33;;;5.50;99.90;;;;;;5065888;28;20040;-66
2022/11/05 01:35:30;;;;;;;9.32;2.38;;;5.50;99.90;;;;;;5059413;28;20550;-66
2022/11/05 01:37:56;;;;;;;10.93;3.13;;;5.50;99.90;;;;;;5063588;28;20048;-66
2022/11/05 01:40:23;;;;;;;6.95;3.20;;;5.40;99.90;;;;;;5043270;28;20040;-66
2022/11/05 01:42:49;;;;;;;11.02;3.08;;;5.50;99.90;;;;;;5061948;28;20182;-66
2022/11/05 01:45:25;;;;;;;14.13;3.42;;;5.40;99.90;;;;;;5048982;28;20131;-66
2022/11/05 01:48:10;;;;;;;8.23;2.60;;;5.30;99.90;;;;;;5064541;28;20400;-66
2022/11/05 01:50:54;;;;;;;6.90;3.28;;;5.30;99.90;;;;;;5062777;28;20037;-66
2022/11/05 01:53:30;;;;;;;7.63;2.70;;;5.20;99.90;;;;;;5066146;28;20106;-66
2022/11/05 01:56:08;;;;;;;9.35;3.38;;;5.20;99.90;;;;;;5058862;28;20101;-66
2022/11/05 01:58:42;;;;;;;13.55;5.50;;;5.10;99.90;;;;;;5063738;28;20044;-66
2022/11/05 02:01:08;;;;;;;15.30;4.20;;;5.10;99.90;;;;;;5061950;28;20072;-66
2022/11/05 02:03:34;;;;;;;9.85;4.20;;;5.10;99.90;;;;;;5060327;28;20075;-66
2022/11/05 02:06:01;;;;;;;11.25;5.05;;;5.00;99.90;;;;;;5059210;28;20568;-66
2022/11/05 02:08:55;;;;;;;8.45;4.65;;;5.10;99.90;;;;;;5064914;28;20036;-66
2022/11/05 02:11:21;;;;;;;14.75;4.70;;;5.10;99.90;;;;;;5055895;28;20037;-66
2022/11/05 02:13:48;;;;;;;9.55;4.13;;;5.10;99.90;;;;;;5058903;28;20105;-66
2022/11/05 02:16:37;;;;;;;8.35;3.63;;;5.00;99.90;;;;;;5060798;28;20100;-66
2022/11/05 02:19:31;;;;;;;11.90;4.57;;;5.00;99.90;;;;;;5048933;28;20040;-66
2022/11/05 02:22:26;;;;;;;11.40;3.78;;;5.00;99.90;;;;;;5060586;28;20045;-66
2022/11/05 02:25:06;;;;;;;11.57;3.90;;;5.00;99.90;;;;;;5025927;28;20095;-67
2022/11/05 02:27:35;;;;;;;8.77;4.20;;;5.00;99.90;;;;;;5059752;28;20472;-66
2022/11/05 02:30:02;;;;;;;13.32;4.80;;;5.00;99.90;;;;;;5063598;28;20047;-66
2022/11/05 02:32:43;;;;;;;13.80;4.63;;;5.00;99.90;;;;;;5044146;28;20063;-66
2022/11/05 02:35:35;;;;;;;8.48;4.28;;;5.00;99.90;;;;;;5049536;28;20656;-67
2022/11/05 02:38:11;;;;;;;10.10;3.97;;;5.00;99.90;;;;;;5061673;28;20675;-66
2022/11/05 02:40:52;;;;;;;11.02;4.30;;;5.00;99.90;;;;;;5061690;28;20542;-66
2022/11/05 02:43:33;;;;;;;12.95;4.50;;;4.90;99.90;;;;;;5058897;28;20079;-66
2022/11/05 02:46:18;;;;;;;9.77;3.28;;;5.00;99.90;;;;;;5059716;28;20104;-66
2022/11/05 02:48:58;;;;;;;11.95;4.22;;;4.90;99.90;;;;;;5059566;28;20094;-67
2022/11/05 02:51:33;;;;;;;8.85;3.65;;;4.90;99.90;;;;;;5046937;28;20040;-66
2022/11/05 02:54:04;;;;;;;11.57;4.45;;;4.90;99.90;;;;;;5061928;28;20051;-66
2022/11/05 02:56:34;;;;;;;11.68;3.90;;;4.90;99.90;;;;;;5062675;28;20078;-66
2022/11/05 02:59:00;;;;;;;9.73;4.30;;;4.90;99.90;;;;;;5062021;28;20040;-66
2022/11/05 03:01:26;;;;;;;15.30;4.68;;;4.80;99.90;;;;;;5059433;28;20436;-66
2022/11/05 03:03:59;;;;;;;13.15;4.57;;;4.80;99.90;;;;;;5065710;28;20043;-66
2022/11/05 03:07:02;;;;;;;16.05;4.88;;;4.80;99.90;;;;;;5059489;28;20056;-66
2022/11/05 03:10:17;;;;;;;7.80;3.25;;;4.80;99.90;;;;;;5042641;28;20171;-66
2022/11/05 03:13:03;;;;;;;8.40;3.60;;;4.80;99.90;;;;;;5009115;28;20091;-66
2022/11/05 03:15:59;;;;;;;12.30;4.00;;;4.70;99.90;;;;;;5062001;28;20107;-66
2022/11/05 03:18:45;;;;;;;8.75;4.35;;;4.70;99.90;;;;;;5056383;28;20041;-66
2022/11/05 03:21:29;;;;;;;12.40;4.60;;;4.70;99.90;;;;;;5059159;28;20373;-66
2022/11/05 03:24:04;;;;;;;8.18;3.75;;;4.70;99.90;;;;;;5042463;28;20048;-66
2022/11/05 03:26:55;;;;;;;10.13;4.55;;;4.70;99.90;;;;;;5059272;28;20043;-66
2022/11/05 03:29:25;;;;;;;11.68;3.72;;;4.70;99.90;;;;;;5055615;28;20058;-66
2022/11/05 03:31:54;;;;;;;12.75;5.07;;;4.70;99.90;;;;;;5060827;28;20077;-66
2022/11/05 03:34:26;;;;;;;16.58;4.82;;;4.60;99.90;;;;;;5058001;28;20033;-66
2022/11/05 03:36:55;;;;;;;13.20;4.82;;;4.60;99.90;;;;;;5062164;28;20045;-66
2022/11/05 03:39:28;;;;;;;10.70;4.38;;;4.60;99.90;;;;;;5056581;28;20060;-66
2022/11/05 03:41:55;;;;;;;15.85;5.50;;;4.60;99.90;;;;;;5061270;28;20132;-66
2022/11/05 03:44:27;;;;;;;12.68;4.72;;;4.60;99.90;;;;;;5043912;28;20480;-66
2022/11/05 03:46:59;;;;;;;13.68;4.68;;;4.60;99.90;;;;;;5048838;28;20077;-66
2022/11/05 03:49:31;;;;;;;9.77;4.63;;;4.60;99.90;;;;;;5056272;28;20481;-66
2022/11/05 03:52:05;;;;;;;17.42;5.88;;;4.60;99.90;;;;;;5062185;28;20585;-66
2022/11/05 03:54:33;;;;;;;10.65;4.70;;;4.60;99.90;;;;;;5060458;28;20143;-66
2022/11/05 03:57:01;;;;;;;7.40;4.85;;;4.60;99.90;;;;;;5061972;28;20025;-66
2022/11/05 03:59:30;;;;;;;12.77;5.32;;;4.60;99.90;;;;;;5041537;28;20036;-66
2022/11/05 04:01:56;;;;;;;10.52;5.78;;;4.60;99.90;;;;;;5059631;28;20033;-66
2022/11/05 04:04:22;;;;;;;12.00;5.50;;;4.60;99.90;;;;;;5060355;28;20122;-67
2022/11/05 04:15:00;;;;;;;13.45;5.15;;;4.60;99.90;;;;;;5057711;28;20103;-66
2022/11/05 04:17:26;;;;;;;13.45;5.28;;;4.60;99.90;;;;;;5057607;28;20032;-65
2022/11/05 04:25:21;;;;;;;9.18;4.40;;;4.60;99.90;;;;;;5040693;28;20049;-66
2022/11/05 04:27:48;;;;;;;7.35;4.53;;;4.60;99.90;;;;;;5058223;28;20061;-66
2022/11/05 04:30:18;;;;;;;8.68;4.93;;;4.60;99.90;;;;;;5055388;28;20291;-66
2022/11/05 04:33:06;;;;;;;11.73;5.03;;;4.60;99.90;;;;;;5057536;28;20112;-65
2022/11/05 04:35:37;;;;;;;11.48;4.68;;;4.60;99.90;;;;;;5055243;28;20063;-66
2022/11/05 04:38:05;;;;;;;12.70;4.75;;;4.50;99.90;;;;;;5057920;28;20107;-66
2022/11/05 04:40:32;;;;;;;8.02;4.40;;;4.50;99.90;;;;;;5046731;28;20044;-66
2022/11/05 04:42:57;;;;;;;14.20;4.60;;;4.50;99.90;;;;;;5055995;28;20036;-66
2022/11/05 04:45:25;;;;;;;11.45;4.70;;;4.50;99.90;;;;;;5059489;28;20131;-66
2022/11/05 04:47:51;;;;;;;11.93;4.70;;;4.40;99.90;;;;;;5062873;28;20386;-66
2022/11/05 04:50:16;;;;;;;9.90;5.30;;;4.50;99.90;;;;;;5059605;28;20140;-66
2022/11/05 04:52:42;;;;;;;11.77;4.72;;;4.50;99.90;;;;;;5018125;28;20369;-66
2022/11/05 04:55:09;;;;;;;11.00;4.82;;;4.40;99.90;;;;;;5055999;28;20053;-66
2022/11/05 04:57:34;;;;;;;10.30;4.93;;;4.40;99.90;;;;;;5058362;28;20048;-66
2022/11/05 05:00:00;;;;;;;12.35;5.55;;;4.40;99.90;;;;;;5048540;28;20029;-66
2022/11/05 05:02:26;;;;;;;11.38;5.13;;;4.40;99.90;;;;;;5043449;28;20612;-66
2022/11/05 05:04:52;;;;;;;10.68;4.93;;;4.40;99.90;;;;;;5057882;28;20052;-66
2022/11/05 05:07:18;;;;;;;9.13;4.55;;;4.40;99.90;;;;;;5037484;28;20117;-66
2022/11/05 05:09:44;;;;;;;9.07;4.60;;;4.40;99.90;;;;;;5041937;28;20040;-66
2022/11/05 05:12:09;;;;;;;13.93;5.40;;;4.40;99.90;;;;;;5048193;28;20045;-66
2022/11/05 05:14:35;;;;;;;11.45;4.68;;;4.30;99.90;;;;;;5044845;28;20400;-66
2022/11/05 05:17:01;;;;;;;14.65;5.22;;;4.40;99.90;;;;;;5052392;28;20028;-66
2022/11/05 05:19:27;;;;;;;10.02;4.97;;;4.40;99.90;;;;;;5058240;28;20029;-66
2022/11/05 05:21:52;;;;;;;15.60;6.20;;;4.40;99.90;;;;;;5053105;28;20103;-65
2022/11/05 05:24:20;;;;;;;13.57;5.80;;;4.50;99.90;;;;;;5045856;28;20032;-65
2022/11/05 05:26:47;;;;;;;12.07;5.22;;;4.50;99.90;;;;;;5051381;28;20552;-66
2022/11/05 05:29:14;;;;;;;9.25;5.15;;;4.50;99.90;;;;;;5037164;28;20049;-66
2022/11/05 05:31:40;;;;;;;12.23;5.25;;;4.60;99.90;;;;;;5039296;28;20543;-66
2022/11/05 05:34:07;;;;;;;12.55;6.00;;;4.60;99.90;;;;;;5037580;28;20551;-66
2022/11/05 05:36:33;;;;;;;10.80;6.20;;;4.70;99.90;;;;;;5039820;28;20037;-66
2022/11/05 05:38:58;;;;;;;16.60;5.97;;;4.70;99.90;;;;;;5048395;28;20038;-66
2022/11/05 05:41:24;;;;;;;9.70;4.72;;;4.70;99.90;;;;;;5042162;28;20040;-66
2022/11/05 05:43:50;;;;;;;9.75;5.30;;;4.60;99.90;;;;;;5040438;28;20103;-66
2022/11/05 05:46:17;;;;;;;17.13;7.05;;;4.60;99.90;;;;;;5046651;28;20040;-66
2022/11/05 05:48:48;;;;;;;14.88;5.50;;;4.60;99.90;;;;;;5040228;28;20047;-66
2022/11/05 05:51:14;;;;;;;12.45;5.05;;;4.60;99.90;;;;;;5044774;28;20119;-65
2022/11/05 05:53:39;;;;;;;10.20;4.95;;;4.50;99.90;;;;;;5035891;28;20240;-66
2022/11/05 05:56:05;;;;;;;14.13;5.13;;;4.50;99.90;;;;;;5037807;28;20112;-66
2022/11/05 05:58:38;;;;;;;9.85;5.90;;;4.50;99.90;;;;;;5038349;28;20095;-66
2022/11/05 06:01:12;;;;;;;11.48;5.35;;;4.40;99.90;;;;;;5040455;28;20045;-66
2022/11/05 06:03:38;;;;;;;9.57;4.50;;;4.40;99.90;;;;;;5041036;28;20044;-66
2022/11/05 06:06:11;;;;;;;11.10;5.93;;;4.40;99.90;;;;;;5036238;28;20048;-66
2022/11/05 06:08:38;;;;;;;13.75;5.45;;;4.40;99.90;;;;;;5039363;28;20042;-66
2022/11/05 06:11:04;;;;;;;15.57;6.32;;;4.40;99.90;;;;;;5038524;28;20064;-66
2022/11/05 06:13:31;;;;;;;15.80;6.15;;;4.30;99.90;;;;;;5039823;28;20419;-66
2022/11/05 06:16:05;;;;;;;10.80;5.20;;;4.40;99.90;;;;;;5039324;28;20388;-66
2022/11/05 06:18:32;;;;;;;8.60;5.53;;;4.30;99.90;;;;;;5040688;28;20048;-66
2022/11/05 06:21:06;;;;;;;14.75;6.35;;;4.40;99.90;;;;;;5036429;28;20029;-66
2022/11/05 06:23:33;;;;;;;11.02;6.00;;;4.40;99.90;;;;;;5039878;28;20557;-66
2022/11/05 06:26:00;;;;;;;12.38;5.85;;;4.40;99.90;;;;;;5038759;28;20496;-66
2022/11/05 06:28:26;;;;;;;11.27;5.40;;;4.30;99.90;;;;;;5051968;28;20072;-66
2022/11/05 06:30:52;;;;;;;12.02;5.68;;;4.30;99.90;;;;;;5061193;28;20041;-66
2022/11/05 06:33:17;;;;;;;12.52;5.72;;;4.30;99.90;;;;;;5060972;28;20032;-66
2022/11/05 06:35:43;;;;;;;11.52;6.20;;;4.30;99.90;;;;;;5057661;28;20097;-66
2022/11/05 06:38:09;;;;;;;10.20;5.70;;;4.30;99.90;;;;;;5060073;28;20033;-66
2022/11/05 06:40:34;;;;;;;8.90;5.38;;;4.30;99.90;;;;;;5067384;28;20167;-66
2022/11/05 06:43:00;;;;;;;11.85;6.25;;;4.30;99.90;;;;;;5042191;28;20052;-66
2022/11/05 06:45:26;;;;;;;15.60;5.70;;;4.30;99.90;;;;;;5056763;28;20040;-66
2022/11/05 06:47:56;;;;;;;10.43;6.28;;;4.30;99.90;;;;;;5061481;28;20586;-66
2022/11/05 06:50:23;;;;;;;9.38;5.68;;;4.30;99.90;;;;;;5063018;28;20040;-66
2022/11/05 06:52:56;;;;;;;13.45;6.20;;;4.30;99.90;;;;;;5063130;28;20041;-66
2022/11/05 06:55:22;;;;;;;10.68;5.35;;;4.30;99.90;;;;;;5057228;28;20046;-66
2022/11/05 06:57:48;;;;;;;10.02;5.25;;;4.30;99.90;;;;;;5058756;28;20151;-66
2022/11/05 07:00:15;;;;;;;16.38;6.10;;;4.30;99.90;;;;;;5061917;28;20033;-66
2022/11/05 07:02:41;;;;;;;9.18;5.80;;;4.30;99.90;;;;;;5058305;28;20044;-66
2022/11/05 07:05:09;;;;;;;10.50;6.15;;;4.30;99.90;;;;;;5063984;28;20058;-65
2022/11/05 07:07:39;;;;;;;10.25;4.88;;;4.30;99.90;;;;;;5060320;28;20075;-66
2022/11/05 07:10:07;;;;;;;10.43;5.53;;;4.40;99.90;;;;;;5061157;28;20040;-66
2022/11/05 07:12:33;;;;;;;9.98;5.85;;;4.30;99.90;;;;;;5059166;28;20423;-66
2022/11/05 07:14:58;;;;;;;9.70;5.93;;;4.30;99.90;;;;;;5064132;28;20037;-66
2022/11/05 07:17:24;;;;;;;10.40;5.80;;;4.40;99.90;;;;;;5061370;28;20123;-66
2022/11/05 07:19:51;;;;;;;8.70;5.38;;;4.40;99.90;;;;;;5062010;28;20070;-65
2022/11/05 07:22:16;;;;;;;14.25;6.32;;;4.40;99.90;;;;;;5060212;28;20040;-66
2022/11/05 07:24:45;;;;;;;9.35;5.55;;;4.50;99.90;;;;;;5062658;28;20028;-66
2022/11/05 07:27:12;;;;;;;14.98;6.75;;;4.60;99.90;;;;;;5040478;28;20052;-66
2022/11/05 07:29:37;;;;;;;196.98;24.05;;;5.10;99.90;;;;;;5060804;28;20490;-66
2022/11/05 07:32:03;;;;;;;27.27;9.85;;;5.80;99.90;;;;;;5042030;28;20079;-66
2022/11/05 07:34:30;;;;;;;81.70;15.10;;;6.60;99.90;;;;;;5059906;28;20090;-66
2022/11/05 07:36:55;;;;;;;93.82;17.42;;;7.30;99.90;;;;;;5046850;28;20040;-66
2022/11/05 07:39:21;;;;;;;13.05;5.47;;;8.00;99.90;;;;;;5061577;28;20051;-66
2022/11/05 07:41:47;;;;;;;173.80;22.45;;;8.60;99.90;;;;;;5062121;28;20407;-66
2022/11/05 07:44:13;;;;;;;34.35;7.85;;;9.10;99.90;;;;;;5058538;28;20443;-67
2022/11/05 07:46:43;;;;;;;6.18;3.40;;;9.70;99.90;;;;;;5055271;28;20041;-66
2022/11/05 07:49:09;;;;;;;6.00;3.30;;;10.20;99.90;;;;;;5057965;28;20076;-67
2022/11/05 07:51:34;;;;;;;7.75;3.20;;;10.60;99.90;;;;;;5056794;28;20068;-67
2022/11/05 07:54:00;;;;;;;19.60;4.35;;;11.10;99.90;;;;;;5057072;28;20037;-66
2022/11/05 07:56:26;;;;;;;12.18;2.67;;;11.50;99.90;;;;;;5056159;28;20438;-67
2022/11/05 07:58:52;;;;;;;8.30;2.92;;;11.90;99.90;;;;;;5057119;28;20040;-67
2022/11/05 08:01:17;;;;;;;3.30;2.28;;;12.50;99.90;;;;;;5045795;28;20184;-67
2022/11/05 08:03:43;;;;;;;7.13;2.70;;;13.00;99.90;;;;;;5057549;28;20044;-68
2022/11/05 08:06:09;;;;;;;6.55;2.38;;;13.40;99.90;;;;;;5060163;28;20025;-67
2022/11/05 08:08:35;;;;;;;6.07;2.47;;;13.80;99.90;;;;;;5063463;28;20036;-67
2022/11/05 08:11:05;;;;;;;5.30;2.38;;;14.20;99.90;;;;;;5046849;28;20045;-67
2022/11/05 08:13:32;;;;;;;4.88;2.28;;;14.60;99.90;;;;;;5057969;28;20041;-67
2022/11/05 08:15:57;;;;;;;3.75;2.05;;;15.00;99.90;;;;;;5067100;28;20426;-67
2022/11/05 08:18:30;;;;;;;3.92;1.90;;;15.40;99.90;;;;;;5060904;28;20041;-67
2022/11/05 08:21:00;;;;;;;3.70;1.80;;;15.70;99.90;;;;;;5057285;28;20062;-67
2022/11/05 08:23:26;;;;;;;3.95;2.15;;;15.90;99.90;;;;;;5051324;28;20049;-67
2022/11/05 08:25:53;;;;;;;7.97;2.13;;;16.20;99.90;;;;;;5058956;28;20391;-67
2022/11/05 08:28:20;;;;;;;3.92;2.00;;;16.40;99.90;;;;;;5032651;28;20479;-67
2022/11/05 08:30:58;;;;;;;5.93;2.17;;;16.70;99.90;;;;;;5039231;28;20053;-67
2022/11/05 08:33:25;;;;;;;4.25;2.00;;;16.90;99.90;;;;;;5036995;28;20582;-67
2022/11/05 08:35:51;;;;;;;9.52;2.53;;;17.20;99.90;;;;;;5034303;28;20048;-67
2022/11/05 08:38:18;;;;;;;6.07;1.95;;;17.50;99.90;;;;;;5037386;28;20037;-67
2022/11/05 08:40:52;;;;;;;2.70;1.90;;;17.80;99.90;;;;;;5044431;28;20037;-68
2022/11/05 08:43:18;;;;;;;5.93;1.77;;;18.00;99.90;;;;;;5037503;28;20431;-67
2022/11/05 08:45:43;;;;;;;3.75;1.70;;;18.20;99.90;;;;;;5041363;28;20097;-68
2022/11/05 08:48:13;;;;;;;4.72;2.08;;;18.30;99.90;;;;;;5041607;28;20105;-67
2022/11/05 08:50:39;;;;;;;4.25;1.90;;;18.40;99.90;;;;;;5042124;28;20112;-68
2022/11/05 08:53:06;;;;;;;4.50;2.00;;;18.60;99.90;;;;;;5034567;28;20187;-68
2022/11/05 08:55:32;;;;;;;5.85;1.73;;;18.70;99.90;;;;;;5042346;28;20037;-68
2022/11/05 08:58:03;;;;;;;4.22;1.80;;;18.90;99.90;;;;;;5040636;28;20037;-68
2022/11/05 09:00:31;;;;;;;2.47;1.50;;;19.20;99.90;;;;;;5038368;28;20644;-67
2022/11/05 09:02:59;;;;;;;3.40;1.70;;;19.40;99.90;;;;;;5037918;28;20029;-67
2022/11/05 09:05:26;;;;;;;4.78;1.70;;;19.70;99.90;;;;;;5037914;28;20033;-67
2022/11/05 09:07:51;;;;;;;4.32;1.90;;;19.90;99.90;;;;;;5043080;28;20040;-67
2022/11/05 09:10:17;;;;;;;3.83;1.73;;;20.00;99.90;;;;;;5039136;28;20489;-68
2022/11/05 09:12:43;;;;;;;3.15;1.55;;;20.20;99.90;;;;;;5041005;28;20168;-68
2022/11/05 09:15:09;;;;;;;4.38;1.60;;;20.10;99.90;;;;;;5043472;28;20436;-68
2022/11/05 09:17:35;;;;;;;4.95;1.70;;;19.20;99.90;;;;;;5042301;28;20390;-68
2022/11/05 09:20:02;;;;;;;4.45;1.52;;;18.90;99.90;;;;;;5045257;28;20045;-68
2022/11/05 09:22:28;;;;;;;3.90;1.70;;;19.00;99.90;;;;;;5043881;28;20120;-68
2022/11/05 09:24:54;;;;;;;4.18;1.50;;;18.80;99.90;;;;;;5047482;28;20056;-68
2022/11/05 09:27:20;;;;;;;2.83;1.58;;;18.80;99.90;;;;;;5044200;28;20570;-68
2022/11/05 09:29:45;;;;;;;3.38;1.42;;;19.20;99.90;;;;;;5057874;28;20076;-68
2022/11/05 09:32:11;;;;;;;4.38;1.60;;;19.50;99.90;;;;;;5048806;28;20427;-66
2022/11/05 09:34:37;;;;;;;4.53;1.73;;;19.90;99.90;;;;;;5065156;28;20067;-65
2022/11/05 09:37:03;;;;;;;3.67;1.90;;;20.40;99.90;;;;;;5063465;28;20070;-66
2022/11/05 09:39:29;;;;;;;5.03;1.58;;;20.70;99.10;;;;;;5060330;28;20583;-66
2022/11/05 09:42:01;;;;;;;7.07;1.63;;;20.90;96.80;;;;;;5062815;28;20497;-65
2022/11/05 09:44:50;;;;;;;5.00;1.20;;;21.10;96.00;;;;;;5063849;28;20122;-66
2022/11/05 09:47:35;;;;;;;3.72;1.45;;;21.30;90.60;;;;;;5063580;28;20039;-66
2022/11/05 09:50:06;;;;;;;3.65;1.38;;;21.50;92.60;;;;;;5042809;28;20040;-65
2022/11/05 09:52:33;;;;;;;3.38;1.00;;;21.60;94.80;;;;;;5066476;28;20083;-65
2022/11/05 09:55:01;;;;;;;6.85;1.63;;;21.80;93.80;;;;;;5062431;28;20033;-65
2022/11/05 09:57:33;;;;;;;4.03;1.13;;;22.10;92.60;;;;;;5061091;28;20036;-66
2022/11/05 10:00:04;;;;;;;4.35;1.35;;;22.20;92.40;;;;;;5063906;28;20037;-65
2022/11/05 10:02:58;;;;;;;2.40;1.05;;;22.40;91.70;;;;;;5057498;28;20068;-66
2022/11/05 10:05:26;;;;;;;4.10;1.00;;;22.60;86.10;;;;;;5058024;28;20089;-65
2022/11/05 10:08:01;;;;;;;4.70;1.52;;;22.60;89.60;;;;;;5059401;28;20457;-65
2022/11/05 10:10:44;;;;;;;3.58;1.17;;;22.70;88.30;;;;;;5062285;28;20059;-65
2022/11/05 10:13:32;;;;;;;5.13;1.25;;;22.90;82.50;;;;;;5061962;28;20365;-66
2022/11/05 10:16:23;;;;;;;3.78;1.05;;;22.90;78.30;;;;;;5062467;28;20101;-65
2022/11/05 10:19:11;;;;;;;3.22;1.33;;;22.60;81.00;;;;;;5063694;28;20644;-68
2022/11/05 10:21:38;;;;;;;3.70;1.20;;;22.10;84.30;;;;;;5060423;28;20041;-67
2022/11/05 10:24:16;;;;;;;3.47;1.13;;;21.90;88.30;;;;;;5061438;28;20186;-67
2022/11/05 10:26:47;;;;;;;5.45;1.20;;;20.70;84.80;;;;;;5063856;28;20040;-67
2022/11/05 10:29:20;;;;;;;5.00;1.10;;;19.20;89.20;;;;;;5057075;28;20543;-67
2022/11/05 10:31:45;;;;;;;4.82;1.42;;;17.90;91.30;;;;;;5060197;28;20468;-67
2022/11/05 10:34:12;;;;;;;3.42;1.10;;;16.90;94.20;;;;;;5048045;28;20060;-67
2022/11/05 10:36:38;;;;;;;3.03;1.10;;;16.20;98.40;;;;;;5046111;28;20381;-67
2022/11/05 10:39:16;;;;;;;3.28;1.00;;;15.70;99.90;;;;;;5058375;28;20036;-67
2022/11/05 10:42:06;;;;;;;4.55;1.15;;;15.20;99.90;;;;;;5060531;28;20111;-67
2022/11/05 10:44:59;;;;;;;3.92;1.30;;;14.90;99.90;;;;;;5046676;28;20049;-67
2022/11/05 10:47:24;;;;;;;2.53;1.10;;;14.60;99.90;;;;;;5057179;28;20080;-67
2022/11/05 10:50:08;;;;;;;5.35;1.30;;;14.30;99.90;;;;;;5060639;28;20079;-67
2022/11/05 10:52:47;;;;;;;5.53;1.52;;;14.20;99.90;;;;;;5043674;28;20536;-66
2022/11/05 10:55:17;;;;;;;3.88;1.40;;;14.00;99.90;;;;;;5066890;28;20032;-67
2022/11/05 10:57:43;;;;;;;4.28;1.58;;;13.90;99.90;;;;;;5065130;28;20044;-67
2022/11/05 11:00:17;;;;;;;4.85;1.40;;;13.80;99.90;;;;;;5044138;28;20033;-66
2022/11/05 11:02:48;;;;;;;3.55;1.30;;;13.70;99.90;;;;;;5044879;28;20048;-67
2022/11/05 11:05:31;;;;;;;6.13;1.65;;;13.60;99.90;;;;;;5044515;28;20374;-67
2022/11/05 11:08:03;;;;;;;4.63;1.10;;;13.50;99.90;;;;;;5060076;28;20062;-66
2022/11/05 11:10:40;;;;;;;2.78;1.20;;;13.30;99.90;;;;;;5061438;28;20071;-66
2022/11/05 11:13:19;;;;;;;5.10;1.85;;;13.30;99.90;;;;;;5060274;28;20033;-67
2022/11/05 11:15:45;;;;;;;2.55;0.90;;;13.20;99.90;;;;;;5057755;28;20033;-66
2022/11/05 11:18:37;;;;;;;3.95;1.10;;;13.10;99.90;;;;;;5041833;28;20088;-66
2022/11/05 11:21:11;;;;;;;3.22;0.82;;;13.00;99.90;;;;;;5047398;28;20433;-67
2022/11/05 11:23:39;;;;;;;4.13;1.10;;;12.90;99.90;;;;;;5056807;28;20495;-67
2022/11/05 11:26:05;;;;;;;2.13;1.00;;;12.80;99.90;;;;;;5058028;28;20037;-66
2022/11/05 11:28:42;;;;;;;3.90;0.93;;;12.70;99.90;;;;;;5059281;28;20087;-67
2022/11/05 11:31:14;;;;;;;3.50;0.88;;;12.60;99.90;;;;;;5062368;28;20029;-66
2022/11/05 11:33:43;;;;;;;3.95;0.90;;;12.40;99.90;;;;;;5058072;28;20116;-67
2022/11/05 11:36:10;;;;;;;2.47;0.88;;;12.40;99.90;;;;;;5060060;28;20037;-66
2022/11/05 11:38:36;;;;;;;3.05;1.10;;;12.30;99.90;;;;;;5059083;28;20056;-67
2022/11/05 11:41:18;;;;;;;4.47;1.10;;;12.20;99.90;;;;;;5049161;28;20141;-67
2022/11/05 11:43:44;;;;;;;5.07;1.38;;;12.20;99.90;;;;;;5060215;28;20040;-68
2022/11/05 11:46:18;;;;;;;3.72;1.58;;;12.10;99.90;;;;;;5044380;28;20518;-67
2022/11/05 11:48:48;;;;;;;4.93;1.60;;;12.10;99.90;;;;;;5042382;28;20484;-67
2022/11/05 11:51:15;;;;;;;2.17;1.10;;;12.00;99.90;;;;;;5060241;28;20598;-67
2022/11/05 11:53:41;;;;;;;3.47;1.45;;;12.00;99.90;;;;;;5047114;28;20045;-67
2022/11/05 11:56:20;;;;;;;10.07;1.40;;;12.00;99.90;;;;;;5058805;28;20033;-67
2022/11/05 11:58:54;;;;;;;4.43;1.00;;;12.00;99.90;;;;;;5060973;28;20044;-67
2022/11/05 12:01:47;;;;;;;6.03;1.27;;;12.00;99.90;;;;;;5044626;28;20044;-67
2022/11/05 12:04:15;;;;;;;4.90;1.00;;;12.10;99.90;;;;;;5057152;28;20404;-67
2022/11/05 12:07:02;;;;;;;6.55;0.90;;;12.10;99.90;;;;;;5060321;28;20369;-67
2022/11/05 12:09:47;;;;;;;4.10;1.30;;;12.10;99.90;;;;;;5043794;28;20048;-66
2022/11/05 12:12:13;;;;;;;;;;;12.00;99.90;;;;;;5059984;28;20080;-66
2022/11/05 12:15:00;;;;;;;4.43;1.20;;;12.00;99.90;;;;;;5055757;28;19924;-66
2022/11/05 12:17:39;;;;;;;3.55;1.27;;;11.90;99.90;;;;;;5062812;28;20137;-67
2022/11/05 12:20:32;;;;;;;5.13;1.23;;;11.90;99.90;;;;;;5062873;28;20040;-67
2022/11/05 12:23:07;;;;;;;4.13;1.48;;;12.00;99.90;;;;;;5060574;28;20036;-67
2022/11/05 12:25:47;;;;;;;4.55;1.50;;;11.90;99.90;;;;;;5040423;28;20101;-68
2022/11/05 12:28:40;;;;;;;4.40;1.40;;;12.00;99.90;;;;;;5050591;28;20511;-67
2022/11/05 12:31:09;;;;;;;4.80;1.20;;;12.00;99.90;;;;;;5057040;28;20124;-66
2022/11/05 12:34:01;;;;;;;4.53;1.58;;;12.00;99.90;;;;;;5040493;28;20049;-66
2022/11/05 12:36:52;;;;;;;4.43;1.60;;;12.00;99.90;;;;;;5045607;28;20055;-67
2022/11/05 12:39:30;;;;;;;6.28;2.03;;;12.00;99.90;;;;;;5049286;28;20432;-67
2022/11/05 12:42:03;;;;;;;5.55;1.80;;;12.00;99.90;;;;;;5060750;28;20037;-67
2022/11/05 12:44:51;;;;;;;4.10;1.88;;;12.00;99.90;;;;;;5056952;28;20041;-67
2022/11/05 12:47:34;;;;;;;5.15;2.10;;;12.00;99.90;;;;;;5057581;28;20044;-67
2022/11/05 12:50:34;;;;;;;4.82;2.15;;;12.10;99.90;;;;;;5063815;28;20040;-66
2022/11/05 12:53:00;;;;;;;3.80;2.00;;;12.00;99.90;;;;;;5057123;28;20440;-66
2022/11/05 12:55:31;;;;;;;5.03;2.15;;;12.00;99.90;;;;;;5057362;28;20123;-68
2022/11/05 12:58:07;;;;;;;8.30;2.22;;;12.10;99.90;;;;;;5057054;28;20084;-67
2022/11/05 13:00:35;;;;;;;5.03;1.98;;;12.10;99.90;;;;;;5057366;28;20503;-67
2022/11/05 13:03:24;;;;;;;5.28;1.98;;;12.10;99.90;;;;;;5058579;28;20099;-67
2022/11/05 13:06:17;;;;;;;6.97;2.13;;;12.10;99.90;;;;;;5063091;28;20098;-66
2022/11/05 13:09:01;;;;;;;7.00;2.63;;;12.10;99.90;;;;;;5057168;28;20036;-67
2022/11/05 13:11:38;;;;;;;5.90;2.45;;;12.10;99.90;;;;;;5058013;28;20048;-67
2022/11/05 13:14:18;;;;;;;5.68;2.20;;;12.20;99.90;;;;;;5061916;28;20036;-68
2022/11/05 13:16:53;;;;;;;4.53;2.50;;;12.20;99.90;;;;;;5057766;28;20060;-68
2022/11/05 13:19:19;;;;;;;5.75;2.22;;;12.20;99.90;;;;;;5061934;28;20037;-68
2022/11/05 13:21:50;;;;;;;7.32;2.55;;;12.20;99.90;;;;;;5054118;28;20618;-67
2022/11/05 13:24:25;;;;;;;6.28;2.42;;;12.30;99.90;;;;;;5060756;28;20040;-67
2022/11/05 13:27:04;;;;;;;6.00;2.63;;;12.30;99.90;;;;;;5043963;28;20121;-67
2022/11/05 13:29:55;;;;;;;4.20;2.50;;;12.40;99.90;;;;;;5056688;28;20132;-67
2022/11/05 13:32:31;;;;;;;7.05;2.72;;;12.40;99.90;;;;;;5058396;28;20105;-67
2022/11/05 13:35:03;;;;;;;6.03;2.75;;;12.30;99.90;;;;;;5062167;28;20084;-67
2022/11/05 13:40:58;;;;;;;5.50;2.17;;;12.30;99.90;;;;;;5058701;28;20048;-67
2022/11/05 13:43:45;;;;;;;9.63;2.90;;;12.20;99.90;;;;;;5034199;28;20049;-67
2022/11/05 13:46:37;;;;;;;9.73;2.80;;;12.20;99.90;;;;;;5049737;28;20044;-67
2022/11/05 13:49:28;;;;;;;8.48;3.10;;;12.10;99.90;;;;;;5006985;28;20140;-66
2022/11/05 13:52:02;;;;;;;6.93;2.90;;;12.10;99.90;;;;;;5061078;28;20042;-66